»·PEaware :: N262BM BGBW-CYYR

N262BM :: BGBW-CYYR

FLIGHT INFORMATION

Flight Status: Arrived
Operator: Privately registered:
United States
More flights under this callsign
Pilot: Colin P. (16825)
Aircraft: SOCATA TBM-900
(TBM9)
More flights by this aircraft type
Origin: BGBW Narsarsuaq
Greenland
Destination: CYYR Goose Bay
Canada
More flights between these airports :: More routes between these airports
Route: NA DCT SI JC AR23 YR CYYR
File this flight plan on PilotEdge
Remarks: RMK / SIMBRIEF
Altitude:
(Current/Filed)
18,000ft
Speed:
(Current/Filed)
278kts
Departed: 21-Mar-19 07:41 AM
Arrived: 21-Mar-19 10:01 AM
Distance/Time
Traveled:
674nm/2:20
Distance/Time
To Go:
Arrived

Flight Plot

Page will automatically refresh every two minutes.

Flight plan parsing failed; only flown route is shown


Map Options




Map Legend


Flown Route
Filed Route
Departure Airport
Arrival Airport
Navaid (VOR, NDB)
Fix

Horizontal Profiles

Position Reports

Time Latitude Longitude Heading Altitude Ground
Speed
21-Mar-19 07:39 60.043709 -48.093929 231 27451ft 290kts
21-Mar-19 07:40 59.976660 -48.243476 231 27453ft 290kts
21-Mar-19 07:41 59.919931 -48.369172 234 27464ft 290kts
21-Mar-19 07:42 59.867130 -48.485670 234 27470ft 292kts
21-Mar-19 07:43 59.813100 -48.604198 234 27475ft 292kts
21-Mar-19 07:44 59.770341 -48.697550 234 27481ft 293kts
21-Mar-19 07:45 59.770341 -48.697550 234 27481ft 293kts
21-Mar-19 07:46 59.770341 -48.697550 234 27481ft 293kts
21-Mar-19 07:47 59.726328 -48.793287 234 27478ft 291kts
21-Mar-19 07:48 59.675541 -48.903234 234 27479ft 291kts
21-Mar-19 07:49 59.624275 -49.013683 234 27484ft 290kts
21-Mar-19 07:50 59.572978 -49.123633 235 27494ft 290kts
21-Mar-19 07:51 59.521236 -49.234053 235 27505ft 290kts
21-Mar-19 07:52 59.469276 -49.344366 235 27512ft 290kts
21-Mar-19 07:53 59.417440 -49.453887 235 27520ft 290kts
21-Mar-19 07:54 59.365470 -49.563170 235 27528ft 290kts
21-Mar-19 07:55 59.313680 -49.671530 234 27536ft 290kts
21-Mar-19 07:56 59.259396 -49.784589 234 27537ft 292kts
21-Mar-19 07:57 59.205031 -49.897197 234 27535ft 292kts
21-Mar-19 07:58 59.150381 -50.009881 235 27544ft 292kts
21-Mar-19 07:59 59.095732 -50.122000 235 27556ft 292kts
21-Mar-19 08:00 59.041193 -50.233342 235 27561ft 291kts
21-Mar-19 08:01 58.986526 -50.344382 236 27562ft 291kts
21-Mar-19 08:02 58.931692 -50.455250 236 27561ft 291kts
21-Mar-19 08:03 58.877086 -50.565083 236 27554ft 290kts
21-Mar-19 08:04 58.822215 -50.674932 235 27579ft 290kts
21-Mar-19 08:05 58.767482 -50.783966 235 27596ft 290kts
21-Mar-19 08:06 58.712401 -50.893148 235 27614ft 291kts
21-Mar-19 08:07 58.657113 -51.002244 235 27626ft 291kts
21-Mar-19 08:08 58.601519 -51.111380 236 27636ft 291kts
21-Mar-19 08:09 58.545889 -51.220085 236 27640ft 291kts
21-Mar-19 08:10 58.490752 -51.327299 236 27639ft 291kts
21-Mar-19 08:11 58.436809 -51.431688 236 27639ft 291kts
21-Mar-19 08:12 58.382284 -51.536730 236 27639ft 291kts
21-Mar-19 08:13 58.328230 -51.640402 236 27638ft 290kts
21-Mar-19 08:14 58.273776 -51.744339 236 27646ft 292kts
21-Mar-19 08:15 58.218783 -51.848820 236 27650ft 293kts
21-Mar-19 08:16 58.164396 -51.951666 236 27730ft 291kts
21-Mar-19 08:17 58.112320 -52.049715 236 27812ft 290kts
21-Mar-19 08:18 58.059646 -52.148459 236 27856ft 291kts
21-Mar-19 08:19 58.003849 -52.252571 236 27856ft 292kts
21-Mar-19 08:20 57.952878 -52.347259 236 27855ft 293kts
21-Mar-19 08:21 57.899663 -52.445694 236 27854ft 293kts
21-Mar-19 08:22 57.844564 -52.547152 236 27845ft 291kts
21-Mar-19 08:23 57.788591 -52.649780 236 27845ft 291kts
21-Mar-19 08:25 57.740762 -52.737069 235 27854ft 292kts
21-Mar-19 08:26 57.690199 -52.828993 235 27857ft 293kts
21-Mar-19 08:27 57.641304 -52.917526 235 27876ft 292kts
21-Mar-19 08:28 57.591972 -53.006499 235 27897ft 292kts
21-Mar-19 08:29 57.533711 -53.111099 235 27924ft 293kts
21-Mar-19 08:30 57.475080 -53.215923 235 27940ft 293kts
21-Mar-19 08:31 57.420461 -53.313108 235 27952ft 293kts
21-Mar-19 08:32 57.365255 -53.410908 235 27951ft 293kts
21-Mar-19 08:33 57.309905 -53.508531 235 27951ft 293kts
21-Mar-19 08:34 57.256698 -53.601979 235 27951ft 293kts
21-Mar-19 08:35 57.202676 -53.696451 234 27959ft 294kts
21-Mar-19 08:36 57.146045 -53.795086 234 27958ft 295kts
21-Mar-19 08:37 57.102436 -53.870704 234 27922ft 296kts
21-Mar-19 08:38 57.046891 -53.966660 234 27984ft 293kts
21-Mar-19 08:39 56.993092 -54.059238 234 27981ft 293kts
21-Mar-19 08:40 56.935357 -54.158134 234 27993ft 292kts
21-Mar-19 08:41 56.877794 -54.256330 234 27985ft 292kts
21-Mar-19 08:42 56.820276 -54.353989 234 27986ft 291kts
21-Mar-19 08:43 56.762489 -54.451695 233 27984ft 291kts
21-Mar-19 08:43 56.713982 -54.533346 233 27985ft 291kts
21-Mar-19 08:45 56.645596 -54.647981 233 27984ft 291kts
21-Mar-19 08:46 56.587530 -54.744881 232 27992ft 293kts
21-Mar-19 08:46 56.538515 -54.826302 232 27992ft 294kts
21-Mar-19 08:48 56.469324 -54.940759 232 27992ft 294kts
21-Mar-19 08:48 56.419602 -55.022650 232 27999ft 294kts
21-Mar-19 08:49 56.359919 -55.120555 232 28008ft 294kts
21-Mar-19 08:50 56.300397 -55.217765 232 28018ft 294kts
21-Mar-19 08:51 56.241577 -55.313404 232 28017ft 294kts
21-Mar-19 08:52 56.182119 -55.409672 232 28017ft 294kts
21-Mar-19 08:53 56.124066 -55.503255 232 28016ft 294kts
21-Mar-19 08:54 56.065794 -55.596781 232 28017ft 294kts
21-Mar-19 08:55 56.007798 -55.689484 231 28023ft 294kts
21-Mar-19 08:56 55.948488 -55.783865 231 28023ft 296kts
21-Mar-19 08:57 55.889922 -55.876683 231 28018ft 296kts
21-Mar-19 08:58 55.829699 -55.971719 231 28018ft 295kts
21-Mar-19 08:59 55.769536 -56.066257 231 28034ft 295kts
21-Mar-19 09:00 55.709628 -56.159995 231 28051ft 295kts
21-Mar-19 09:01 55.651691 -56.250273 230 28062ft 295kts
21-Mar-19 09:02 55.594639 -56.338797 230 28061ft 295kts
21-Mar-19 09:03 55.538678 -56.425301 230 28060ft 295kts
21-Mar-19 09:04 55.479080 -56.517033 230 28060ft 295kts
21-Mar-19 09:05 55.419431 -56.608482 230 28059ft 295kts
21-Mar-19 09:06 55.361692 -56.696620 229 28067ft 296kts
21-Mar-19 09:07 55.303171 -56.785613 229 28067ft 297kts
21-Mar-19 09:08 55.243974 -56.875263 229 28067ft 297kts
21-Mar-19 09:09 55.188434 -56.959048 229 28050ft 298kts
21-Mar-19 09:10 55.125901 -57.052962 229 28037ft 298kts
21-Mar-19 09:11 55.063975 -57.145596 229 28032ft 298kts
21-Mar-19 09:12 55.003461 -57.235745 229 28037ft 298kts
21-Mar-19 09:13 54.942754 -57.325801 229 28036ft 297kts
21-Mar-19 09:14 54.891343 -57.401789 228 28033ft 297kts
21-Mar-19 09:15 54.840159 -57.477158 228 28031ft 297kts
21-Mar-19 09:16 54.792592 -57.547001 228 28031ft 296kts
21-Mar-19 09:17 54.742299 -57.620568 228 28031ft 296kts
21-Mar-19 09:18 54.690773 -57.695702 227 28044ft 297kts
21-Mar-19 09:19 54.634009 -57.778167 227 28059ft 297kts
21-Mar-19 09:20 54.573589 -57.865611 227 28074ft 297kts
21-Mar-19 09:21 54.514706 -57.950489 227 28068ft 298kts
21-Mar-19 09:22 54.460619 -58.028213 227 27791ft 306kts
21-Mar-19 09:23 54.407524 -58.104182 226 26669ft 319kts
21-Mar-19 09:24 54.344319 -58.194252 226 25342ft 320kts
21-Mar-19 09:25 54.277005 -58.289810 226 23973ft 318kts
21-Mar-19 09:26 54.224609 -58.383142 238 22141ft 314kts
21-Mar-19 09:27 54.178310 -58.487960 238 20548ft 302kts
21-Mar-19 09:28 54.133826 -58.588510 238 19286ft 287kts
21-Mar-19 09:29 54.096735 -58.672013 238 18302ft 282kts
21-Mar-19 09:30 54.059717 -58.755109 237 17336ft 281kts
21-Mar-19 09:31 54.023461 -58.836188 237 16382ft 271kts
21-Mar-19 09:32 53.989167 -58.912735 237 15477ft 266kts
21-Mar-19 09:33 53.955232 -58.988124 237 14592ft 267kts
21-Mar-19 09:34 53.922972 -59.059634 237 13746ft 267kts
21-Mar-19 09:35 53.890686 -59.130982 237 12901ft 266kts
21-Mar-19 09:36 53.856697 -59.205881 236 12012ft 263kts
21-Mar-19 09:37 53.825854 -59.273725 236 11201ft 257kts
21-Mar-19 09:38 53.794153 -59.343196 235 10378ft 255kts
21-Mar-19 09:39 53.763172 -59.410951 235 9585ft 250kts
21-Mar-19 09:40 53.734645 -59.473075 234 8825ft 232kts
21-Mar-19 09:41 53.707674 -59.531688 234 8128ft 227kts
21-Mar-19 09:42 53.679449 -59.592898 234 7393ft 211kts
21-Mar-19 09:43 53.652818 -59.650524 234 6705ft 202kts
21-Mar-19 09:44 53.620166 -59.721017 233 5880ft 193kts
21-Mar-19 09:45 53.591880 -59.781943 232 5149ft 188kts
21-Mar-19 09:46 53.568458 -59.832246 231 4528ft 180kts
21-Mar-19 09:47 53.539525 -59.894257 230 3817ft 179kts
21-Mar-19 09:48 53.510094 -59.957166 230 3062ft 182kts
21-Mar-19 09:49 53.480871 -60.019486 229 2321ft 183kts
21-Mar-19 09:50 53.456013 -60.078538 233 2199ft 169kts
21-Mar-19 09:51 53.431670 -60.137997 233 1980ft 176kts
21-Mar-19 09:52 53.409930 -60.191184 231 1874ft 126kts
21-Mar-19 09:53 53.393805 -60.229972 231 1950ft 102kts
21-Mar-19 09:54 53.379349 -60.265131 231 1897ft 101kts
21-Mar-19 09:55 53.364970 -60.300059 232 1666ft 106kts
21-Mar-19 09:56 53.353066 -60.329001 231 1251ft 79kts
21-Mar-19 09:57 53.342547 -60.354462 231 888ft 77kts
21-Mar-19 09:58 53.332019 -60.379952 231 532ft 75kts
21-Mar-19 09:59 53.322138 -60.404943 230 204ft 75kts
21-Mar-19 10:00 53.314407 -60.422648 249 148ft 32kts
21-Mar-19 10:01 53.310843 -60.427391 138 149ft 0kts
21-Mar-19 10:02 53.311053 -60.426252 58 147ft 18kts
21-Mar-19 10:03 53.315153 -60.416473 56 141ft 28kts
21-Mar-19 10:04 53.312930 -60.417199 232 140ft 14kts
21-Mar-19 10:05 53.311653 -60.420476 231 141ft 2kts
21-Mar-19 10:06 53.311653 -60.420478 231 141ft 0kts
21-Mar-19 10:07 53.311653 -60.420478 231 141ft 0kts
21-Mar-19 10:08 53.311653 -60.420478 231 141ft 0kts
21-Mar-19 10:09 53.311653 -60.420478 231 141ft 0kts
21-Mar-19 10:10 53.311653 -60.420478 231 141ft 0kts
21-Mar-19 10:11 53.311653 -60.420478 231 141ft 0kts
21-Mar-19 10:12 53.311653 -60.420478 231 141ft 0kts
21-Mar-19 10:13 53.311653 -60.420478 231 141ft 0kts
21-Mar-19 10:14 53.309066 -60.398998 219 127ft 0kts

Navigation Log

Ident Type
Flight plan parsing failed, navigation log unavailable